createdAt,value
2023-04-30T00:02:16.366Z,5.94
2023-04-30T00:04:43.729Z,5.92
2023-04-30T00:07:11.160Z,5.91
2023-04-30T00:09:38.599Z,5.89
2023-04-30T00:12:06.196Z,5.88
2023-04-30T00:14:33.676Z,5.86
2023-04-30T00:17:01.078Z,5.86
2023-04-30T00:19:28.330Z,5.84
2023-04-30T00:21:55.953Z,5.84
2023-04-30T00:24:23.472Z,5.83
2023-04-30T00:26:50.931Z,5.83
2023-04-30T00:29:18.333Z,5.81
2023-04-30T00:31:45.901Z,5.81
2023-04-30T00:34:14.054Z,5.81
2023-04-30T00:36:41.803Z,5.81
2023-04-30T00:39:09.108Z,5.81
2023-04-30T00:41:36.680Z,5.80
2023-04-30T00:44:04.596Z,5.80
2023-04-30T00:46:31.961Z,5.80
2023-04-30T00:49:00.652Z,5.81
2023-04-30T00:51:28.436Z,5.81
2023-04-30T00:53:56.461Z,5.81
2023-04-30T00:56:23.886Z,5.80
2023-04-30T00:58:54.680Z,5.79
2023-04-30T01:01:22.173Z,5.77
2023-04-30T01:03:49.702Z,5.75
2023-04-30T01:06:17.117Z,5.73
2023-04-30T01:08:44.493Z,5.70
2023-04-30T01:11:23.302Z,5.67
2023-04-30T01:13:56.644Z,5.64
2023-04-30T01:16:25.650Z,5.61
2023-04-30T01:19:06.101Z,5.59
2023-04-30T01:21:34.079Z,5.55
2023-04-30T01:24:20.719Z,5.52
2023-04-30T01:27:07.373Z,5.49
2023-04-30T01:29:35.435Z,5.46
2023-04-30T01:32:04.049Z,5.44
2023-04-30T01:34:31.537Z,5.42
2023-04-30T01:37:16.940Z,5.39
2023-04-30T01:39:56.801Z,5.35
2023-04-30T01:42:27.812Z,5.32
2023-04-30T01:44:59.516Z,5.29
2023-04-30T01:47:28.855Z,5.27
2023-04-30T01:50:11.921Z,5.24
2023-04-30T01:52:45.417Z,5.21
2023-04-30T01:55:18.897Z,5.17
2023-04-30T01:58:06.809Z,5.14
2023-04-30T02:00:34.164Z,5.11
2023-04-30T02:03:01.467Z,5.08
2023-04-30T02:05:30.352Z,5.04
2023-04-30T02:07:57.627Z,5.01
2023-04-30T02:10:26.815Z,4.98
2023-04-30T02:12:54.332Z,4.94
2023-04-30T02:15:21.731Z,4.90
2023-04-30T02:17:48.999Z,4.87
2023-04-30T02:20:16.625Z,4.84
2023-04-30T02:22:43.906Z,4.82
2023-04-30T02:25:12.880Z,4.79
2023-04-30T02:27:40.563Z,4.77
2023-04-30T02:30:08.473Z,4.75
2023-04-30T02:32:35.889Z,4.72
2023-04-30T02:35:03.283Z,4.70
2023-04-30T02:37:31.072Z,4.70
2023-04-30T02:39:58.377Z,4.67
2023-04-30T02:42:26.172Z,4.66
2023-04-30T02:44:53.499Z,4.64
2023-04-30T02:47:20.775Z,4.64
2023-04-30T02:49:48.144Z,4.64
2023-04-30T02:52:15.581Z,4.63
2023-04-30T02:54:43.367Z,4.63
2023-04-30T02:57:11.027Z,4.63
2023-04-30T02:59:39.271Z,4.63
2023-04-30T03:02:07.354Z,4.64
2023-04-30T03:04:34.584Z,4.63
2023-04-30T03:07:02.347Z,4.65
2023-04-30T03:09:31.361Z,4.65
2023-04-30T03:11:58.696Z,4.66
2023-04-30T03:14:26.071Z,4.67
2023-04-30T03:16:53.300Z,4.68
2023-04-30T03:19:25.555Z,4.68
2023-04-30T03:21:53.082Z,4.70
2023-04-30T03:24:20.353Z,4.73
2023-04-30T03:26:47.650Z,4.75
2023-04-30T03:29:15.013Z,4.79
2023-04-30T03:31:43.410Z,4.82
2023-04-30T03:34:10.899Z,4.86
2023-04-30T03:36:38.364Z,4.90
2023-04-30T03:39:06.068Z,4.95
2023-04-30T03:41:33.963Z,5.00
2023-04-30T03:44:01.312Z,5.05
2023-04-30T03:46:28.628Z,5.10
2023-04-30T03:48:55.936Z,5.15
2023-04-30T03:51:23.263Z,5.21
2023-04-30T03:53:50.927Z,5.26
2023-04-30T03:56:18.228Z,5.33
2023-04-30T03:58:45.565Z,5.39
2023-04-30T04:01:13.123Z,5.45
2023-04-30T04:03:40.930Z,5.50
2023-04-30T04:06:08.542Z,5.58
2023-04-30T04:08:37.247Z,5.65
2023-04-30T04:11:05.518Z,5.73
2023-04-30T04:13:33.198Z,5.81
2023-04-30T04:16:01.451Z,5.90
2023-04-30T04:18:29.289Z,5.99
2023-04-30T04:20:57.136Z,6.08
2023-04-30T04:23:24.699Z,6.17
2023-04-30T04:25:52.936Z,6.25
2023-04-30T04:28:20.765Z,6.33
2023-04-30T04:30:48.292Z,6.41
2023-04-30T04:33:15.906Z,6.48
2023-04-30T04:35:44.852Z,6.55
2023-04-30T04:38:12.809Z,6.62
2023-04-30T04:40:40.892Z,6.69
2023-04-30T04:43:08.613Z,6.76
2023-04-30T04:45:36.571Z,6.85
2023-04-30T04:48:04.193Z,6.93
2023-04-30T04:50:31.813Z,7.02
2023-04-30T04:52:59.378Z,7.12
2023-04-30T04:55:26.934Z,7.22
2023-04-30T04:57:54.550Z,7.31
2023-04-30T05:00:23.529Z,7.40
2023-04-30T05:02:51.210Z,7.49
2023-04-30T05:05:19.126Z,7.59
2023-04-30T05:07:47.409Z,7.70
2023-04-30T05:10:15.396Z,7.79
2023-04-30T05:12:42.815Z,7.88
2023-04-30T05:15:10.794Z,7.95
2023-04-30T05:17:38.498Z,8.02
2023-04-30T05:20:07.786Z,8.08
2023-04-30T05:22:35.346Z,8.14
2023-04-30T05:25:02.956Z,8.19
2023-04-30T05:27:30.481Z,8.25
2023-04-30T05:29:58.225Z,8.32
2023-04-30T05:32:25.821Z,8.39
2023-04-30T05:34:53.425Z,8.44
2023-04-30T05:37:23.050Z,8.49
2023-04-30T05:39:51.101Z,8.54
2023-04-30T05:42:18.611Z,8.57
2023-04-30T05:44:46.571Z,8.63
2023-04-30T05:47:14.152Z,8.67
2023-04-30T05:49:41.876Z,8.74
2023-04-30T05:52:09.387Z,8.79
2023-04-30T05:54:37.363Z,8.83
2023-04-30T05:57:04.843Z,8.87
2023-04-30T05:59:32.931Z,8.93
2023-04-30T06:02:00.530Z,8.98
2023-04-30T06:04:28.118Z,9.03
2023-04-30T06:06:55.653Z,9.08
2023-04-30T06:09:23.310Z,9.13
2023-04-30T06:11:52.501Z,9.17
2023-04-30T06:14:20.705Z,9.21
2023-04-30T06:16:48.799Z,9.25
2023-04-30T06:19:16.706Z,9.30
2023-04-30T06:21:44.427Z,9.35
2023-04-30T06:24:12.061Z,9.37
2023-04-30T06:26:39.821Z,9.39
2023-04-30T06:29:07.382Z,9.42
2023-04-30T06:31:35.020Z,9.45
2023-04-30T06:34:02.641Z,9.47
2023-04-30T06:36:30.315Z,9.50
2023-04-30T06:38:57.949Z,9.51
2023-04-30T06:41:25.454Z,9.54
2023-04-30T06:43:53.237Z,9.57
2023-04-30T06:46:20.868Z,9.62
2023-04-30T06:48:48.543Z,9.67
2023-04-30T06:51:16.549Z,9.71
2023-04-30T06:53:44.056Z,9.77
2023-04-30T06:56:11.645Z,9.84
2023-04-30T06:58:40.551Z,9.89
2023-04-30T07:01:08.197Z,9.94
2023-04-30T07:03:36.082Z,9.97
2023-04-30T07:06:04.408Z,10.02
2023-04-30T07:08:31.988Z,10.06
2023-04-30T07:10:59.487Z,10.09
2023-04-30T07:13:27.863Z,10.12
2023-04-30T07:15:55.686Z,10.15
2023-04-30T07:18:23.201Z,10.19
2023-04-30T07:20:51.211Z,10.24
2023-04-30T07:23:18.932Z,10.32
2023-04-30T07:25:46.438Z,10.43
2023-04-30T07:28:14.002Z,10.51
2023-04-30T07:30:41.484Z,10.60
2023-04-30T07:33:10.102Z,10.70
2023-04-30T07:35:37.744Z,10.78
2023-04-30T07:38:06.285Z,10.89
2023-04-30T07:40:36.383Z,10.98
2023-04-30T07:43:05.639Z,11.05
2023-04-30T07:45:35.295Z,11.09
2023-04-30T07:48:03.550Z,11.12
2023-04-30T07:50:34.478Z,11.15
2023-04-30T07:53:02.188Z,11.16
2023-04-30T07:55:29.723Z,11.15
2023-04-30T07:57:57.313Z,11.17
2023-04-30T08:00:26.804Z,11.17
2023-04-30T08:02:54.295Z,11.16
2023-04-30T08:05:21.946Z,11.14
2023-04-30T08:07:49.452Z,11.13
2023-04-30T08:10:17.143Z,11.09
2023-04-30T08:12:44.917Z,11.06
2023-04-30T08:15:12.556Z,11.08
2023-04-30T08:17:40.175Z,11.09
2023-04-30T08:20:08.279Z,11.09
2023-04-30T08:22:35.809Z,11.08
2023-04-30T08:25:03.480Z,11.06
2023-04-30T08:27:31.736Z,11.06
2023-04-30T08:29:59.697Z,11.05
2023-04-30T08:32:28.216Z,11.06
2023-04-30T08:34:56.690Z,11.09
2023-04-30T08:37:24.541Z,11.09
2023-04-30T08:39:52.151Z,11.10
2023-04-30T08:42:19.729Z,11.13
2023-04-30T08:44:48.736Z,11.15
2023-04-30T08:47:16.704Z,11.17
2023-04-30T08:49:44.277Z,11.21
2023-04-30T08:52:12.007Z,11.24
2023-04-30T08:54:39.511Z,11.27
2023-04-30T08:57:07.952Z,11.28
2023-04-30T08:59:35.631Z,11.28
2023-04-30T09:02:03.314Z,11.29
2023-04-30T09:04:31.018Z,11.34
2023-04-30T09:07:04.513Z,11.38
2023-04-30T09:09:38.428Z,11.42
2023-04-30T09:12:18.463Z,11.46
2023-04-30T09:15:04.268Z,11.51
2023-04-30T09:17:32.552Z,11.59
2023-04-30T09:20:10.405Z,11.66
2023-04-30T09:22:38.555Z,11.73
2023-04-30T09:25:06.744Z,11.77
2023-04-30T09:27:34.492Z,11.78
2023-04-30T09:30:02.003Z,11.76
2023-04-30T09:32:29.676Z,11.73
2023-04-30T09:34:57.429Z,11.71
2023-04-30T09:37:35.748Z,11.70
2023-04-30T09:40:04.878Z,11.70
2023-04-30T09:42:32.467Z,11.68
2023-04-30T09:45:00.491Z,11.67
2023-04-30T09:47:30.065Z,11.66
2023-04-30T09:49:57.928Z,11.63
2023-04-30T09:52:25.764Z,11.64
2023-04-30T09:54:53.220Z,11.66
2023-04-30T09:57:23.278Z,11.67
2023-04-30T09:59:51.146Z,11.68
2023-04-30T10:02:20.621Z,11.71
2023-04-30T10:04:49.715Z,11.77
2023-04-30T10:07:20.121Z,11.82
2023-04-30T10:10:19.030Z,11.90
2023-04-30T10:12:49.211Z,11.98
2023-04-30T10:15:18.229Z,12.05
2023-04-30T10:17:48.289Z,12.08
2023-04-30T10:20:16.050Z,12.11
2023-04-30T10:22:44.331Z,12.16
2023-04-30T10:25:13.884Z,12.24
2023-04-30T10:27:41.427Z,12.34
2023-04-30T10:30:10.460Z,12.45
2023-04-30T10:32:44.384Z,12.59
2023-04-30T10:35:15.292Z,12.72
2023-04-30T10:37:56.875Z,12.84
2023-04-30T10:40:27.555Z,12.99
2023-04-30T10:42:57.909Z,13.12
2023-04-30T10:45:38.568Z,13.24
2023-04-30T10:48:07.048Z,13.36
2023-04-30T10:50:40.281Z,13.40
2023-04-30T10:53:08.301Z,13.38
2023-04-30T10:55:42.206Z,13.39
2023-04-30T10:58:23.762Z,13.41
2023-04-30T11:01:21.338Z,13.42
2023-04-30T11:04:06.257Z,13.43
2023-04-30T11:07:10.001Z,13.44
2023-04-30T11:09:44.433Z,13.44
2023-04-30T11:12:13.171Z,13.44
2023-04-30T11:14:44.665Z,13.45
2023-04-30T11:17:30.413Z,13.45
2023-04-30T11:20:00.231Z,13.43
2023-04-30T11:22:28.310Z,13.39
2023-04-30T11:25:13.410Z,13.38
2023-04-30T11:27:46.931Z,13.39
2023-04-30T11:30:15.768Z,13.47
2023-04-30T11:32:48.194Z,13.56
2023-04-30T11:35:19.810Z,13.66
2023-04-30T11:37:47.516Z,13.71
2023-04-30T11:40:15.280Z,13.72
2023-04-30T11:42:47.468Z,13.75
2023-04-30T11:45:18.159Z,13.78
2023-04-30T11:47:46.643Z,13.78
2023-04-30T11:50:17.316Z,13.76
2023-04-30T11:52:49.545Z,13.72
2023-04-30T11:55:18.219Z,13.66
2023-04-30T11:57:47.211Z,13.58
2023-04-30T12:00:15.651Z,13.53
2023-04-30T12:02:43.760Z,13.48
2023-04-30T12:05:16.385Z,13.42
2023-04-30T12:07:50.617Z,13.37
2023-04-30T12:10:21.408Z,13.33
2023-04-30T12:12:51.923Z,13.31
2023-04-30T12:15:23.147Z,13.33
2023-04-30T12:17:50.882Z,13.35
2023-04-30T12:20:19.152Z,13.37
2023-04-30T12:22:46.556Z,13.36
2023-04-30T12:25:16.297Z,13.36
2023-04-30T12:27:46.599Z,13.33
2023-04-30T12:30:13.999Z,13.31
2023-04-30T12:32:42.334Z,13.31
2023-04-30T12:35:10.288Z,13.33
2023-04-30T12:37:37.903Z,13.37
2023-04-30T12:40:05.942Z,13.39
2023-04-30T12:42:36.366Z,13.38
2023-04-30T12:45:04.303Z,13.41
2023-04-30T12:47:31.796Z,13.45
2023-04-30T12:49:59.153Z,13.47
2023-04-30T12:52:26.947Z,13.45
2023-04-30T12:54:55.368Z,13.46
2023-04-30T12:57:22.668Z,13.48
2023-04-30T12:59:49.990Z,13.50
2023-04-30T13:02:17.575Z,13.48
2023-04-30T13:04:44.954Z,13.42
2023-04-30T13:07:12.314Z,13.38
2023-04-30T13:09:39.927Z,13.37
2023-04-30T13:12:07.733Z,13.34
2023-04-30T13:14:35.406Z,13.34
2023-04-30T13:17:06.206Z,13.34
2023-04-30T13:19:34.488Z,13.36
2023-04-30T13:22:02.263Z,13.38
2023-04-30T13:24:31.558Z,13.43
2023-04-30T13:27:00.023Z,13.51
2023-04-30T13:29:28.045Z,13.60
2023-04-30T13:31:55.708Z,13.67
2023-04-30T13:34:23.725Z,13.73
2023-04-30T13:36:52.500Z,13.81
2023-04-30T13:39:20.234Z,13.85
2023-04-30T13:41:49.642Z,13.88
2023-04-30T13:44:17.656Z,13.95
2023-04-30T13:46:45.082Z,14.04
2023-04-30T13:49:12.596Z,14.06
2023-04-30T13:51:39.878Z,14.05
2023-04-30T13:54:07.246Z,14.02
2023-04-30T13:56:34.536Z,14.03
2023-04-30T13:59:02.112Z,14.04
2023-04-30T14:01:29.688Z,14.00
2023-04-30T14:03:57.385Z,13.95
2023-04-30T14:06:24.839Z,13.89
2023-04-30T14:08:52.289Z,13.83
2023-04-30T14:11:19.934Z,13.78
2023-04-30T14:13:47.536Z,13.74
2023-04-30T14:16:15.202Z,13.68
2023-04-30T14:18:42.956Z,13.60
2023-04-30T14:21:10.488Z,13.51
2023-04-30T14:23:39.254Z,13.42
2023-04-30T14:26:06.975Z,13.33
2023-04-30T14:28:34.373Z,13.25
2023-04-30T14:31:01.888Z,13.20
2023-04-30T14:33:29.211Z,13.16
2023-04-30T14:35:56.864Z,13.10
2023-04-30T14:38:24.697Z,13.03
2023-04-30T14:40:52.292Z,12.97
2023-04-30T14:43:19.886Z,12.92
2023-04-30T14:45:47.568Z,12.90
2023-04-30T14:48:15.126Z,12.88
2023-04-30T14:50:42.925Z,12.86
2023-04-30T14:53:11.911Z,12.84
2023-04-30T14:55:39.810Z,12.83
2023-04-30T14:58:07.580Z,12.82
2023-04-30T15:00:35.053Z,12.82
2023-04-30T15:03:02.629Z,12.82
2023-04-30T15:05:30.525Z,12.82
2023-04-30T15:07:58.013Z,12.83
2023-04-30T15:10:25.510Z,12.82
2023-04-30T15:12:52.931Z,12.81
2023-04-30T15:15:22.980Z,12.81
2023-04-30T15:17:50.460Z,12.80
2023-04-30T15:20:17.833Z,12.80
2023-04-30T15:22:45.930Z,12.79
2023-04-30T15:25:13.193Z,12.77
2023-04-30T15:27:41.838Z,12.75
2023-04-30T15:30:10.008Z,12.73
2023-04-30T15:32:37.706Z,12.69
2023-04-30T15:35:05.590Z,12.65
2023-04-30T15:37:34.903Z,12.59
2023-04-30T15:40:02.275Z,12.54
2023-04-30T15:42:30.062Z,12.50
2023-04-30T15:44:57.623Z,12.44
2023-04-30T15:47:25.411Z,12.39
2023-04-30T15:49:53.173Z,12.36
2023-04-30T15:52:20.998Z,12.33
2023-04-30T15:54:48.289Z,12.30
2023-04-30T15:57:15.593Z,12.27
2023-04-30T15:59:43.029Z,12.24
2023-04-30T16:02:10.382Z,12.22
2023-04-30T16:04:37.831Z,12.18
2023-04-30T16:07:05.150Z,12.15
2023-04-30T16:09:32.479Z,12.12
2023-04-30T16:12:00.155Z,12.08
2023-04-30T16:14:27.751Z,12.05
2023-04-30T16:16:55.412Z,12.00
2023-04-30T16:19:22.992Z,11.96
2023-04-30T16:21:50.613Z,11.91
2023-04-30T16:24:17.915Z,11.87
2023-04-30T16:26:45.269Z,11.81
2023-04-30T16:29:12.521Z,11.77
2023-04-30T16:31:40.032Z,11.72
2023-04-30T16:34:11.766Z,11.67
2023-04-30T16:36:39.341Z,11.62
2023-04-30T16:39:06.739Z,11.57
2023-04-30T16:41:34.049Z,11.52
2023-04-30T16:44:01.485Z,11.46
2023-04-30T16:46:29.045Z,11.40
2023-04-30T16:48:56.557Z,11.33
2023-04-30T16:51:23.973Z,11.28
2023-04-30T16:53:51.416Z,11.22
2023-04-30T16:56:18.782Z,11.15
2023-04-30T16:58:46.105Z,11.10
2023-04-30T17:01:13.560Z,11.04
2023-04-30T17:03:40.937Z,10.98
2023-04-30T17:06:08.613Z,10.91
2023-04-30T17:08:36.190Z,10.83
2023-04-30T17:11:03.439Z,10.76
2023-04-30T17:13:32.568Z,10.68
2023-04-30T17:16:02.941Z,10.59
2023-04-30T17:18:30.229Z,10.50
2023-04-30T17:20:57.493Z,10.41
2023-04-30T17:23:26.019Z,10.31
2023-04-30T17:25:53.671Z,10.20
2023-04-30T17:28:20.954Z,10.10
2023-04-30T17:30:48.452Z,10.00
2023-04-30T17:33:15.842Z,9.89
2023-04-30T17:35:43.134Z,9.79
2023-04-30T17:38:10.493Z,9.69
2023-04-30T17:40:37.754Z,9.59
2023-04-30T17:43:05.285Z,9.48
2023-04-30T17:45:32.638Z,9.37
2023-04-30T17:47:59.960Z,9.26
2023-04-30T17:50:27.368Z,9.16
2023-04-30T17:52:54.693Z,9.06
2023-04-30T17:55:22.363Z,8.97
2023-04-30T17:57:49.765Z,8.86
2023-04-30T18:00:17.761Z,8.77
2023-04-30T18:02:46.323Z,8.67
2023-04-30T18:05:13.671Z,8.57
2023-04-30T18:07:41.234Z,8.48
2023-04-30T18:10:09.054Z,8.38
2023-04-30T18:12:36.656Z,8.30
2023-04-30T18:15:05.330Z,8.22
2023-04-30T18:17:34.505Z,8.14
2023-04-30T18:20:04.654Z,8.08
2023-04-30T18:22:32.523Z,8.01
2023-04-30T18:25:00.013Z,7.95
2023-04-30T18:27:28.027Z,7.89
2023-04-30T18:29:56.856Z,7.84
2023-04-30T18:32:24.749Z,7.79
2023-04-30T18:34:52.338Z,7.75
2023-04-30T18:37:21.338Z,7.71
2023-04-30T18:39:48.897Z,7.67
2023-04-30T18:42:16.328Z,7.63
2023-04-30T18:44:43.774Z,7.59
2023-04-30T18:47:11.748Z,7.57
2023-04-30T18:49:39.164Z,7.54
2023-04-30T18:52:06.749Z,7.51
2023-04-30T18:54:34.652Z,7.48
2023-04-30T18:57:02.072Z,7.45
2023-04-30T18:59:29.895Z,7.42
2023-04-30T19:01:57.626Z,7.38
2023-04-30T19:04:25.560Z,7.36
2023-04-30T19:06:54.833Z,7.33
2023-04-30T19:09:22.288Z,7.31
2023-04-30T19:11:49.710Z,7.29
2023-04-30T19:14:18.182Z,7.27
2023-04-30T19:16:45.454Z,7.25
2023-04-30T19:19:13.188Z,7.24
2023-04-30T19:21:40.477Z,7.22
2023-04-30T19:24:08.018Z,7.20
2023-04-30T19:26:37.694Z,7.17
2023-04-30T19:29:05.051Z,7.16
2023-04-30T19:31:34.868Z,7.14
2023-04-30T19:34:02.371Z,7.14
2023-04-30T19:36:29.683Z,7.12
2023-04-30T19:38:57.010Z,7.10
2023-04-30T19:41:24.463Z,7.07
2023-04-30T19:43:53.792Z,7.06
2023-04-30T19:46:21.473Z,7.05
2023-04-30T19:48:50.832Z,7.03
2023-04-30T19:51:18.414Z,7.01
2023-04-30T19:53:45.980Z,7.00
2023-04-30T19:56:13.265Z,6.98
2023-04-30T19:58:40.844Z,6.96
2023-04-30T20:01:08.564Z,6.94
2023-04-30T20:03:36.434Z,6.92
2023-04-30T20:06:04.986Z,6.90
2023-04-30T20:08:32.320Z,6.89
2023-04-30T20:11:01.186Z,6.87
2023-04-30T20:13:29.651Z,6.85
2023-04-30T20:15:57.163Z,6.84
2023-04-30T20:18:24.693Z,6.82
2023-04-30T20:20:52.798Z,6.80
2023-04-30T20:23:20.918Z,6.78
2023-04-30T20:25:49.993Z,6.76
2023-04-30T20:28:18.558Z,6.74
2023-04-30T20:30:47.848Z,6.71
2023-04-30T20:33:15.357Z,6.69
2023-04-30T20:35:44.516Z,6.66
2023-04-30T20:38:12.478Z,6.62
2023-04-30T20:40:42.723Z,6.59
2023-04-30T20:43:11.379Z,6.56
2023-04-30T20:45:38.880Z,6.52
2023-04-30T20:48:07.894Z,6.48
2023-04-30T20:50:35.252Z,6.44
2023-04-30T20:53:02.776Z,6.41
2023-04-30T20:55:30.307Z,6.37
2023-04-30T20:57:57.660Z,6.32
2023-04-30T21:00:25.165Z,6.29
2023-04-30T21:02:54.282Z,6.25
2023-04-30T21:05:21.815Z,6.21
2023-04-30T21:07:49.171Z,6.17
2023-04-30T21:10:16.705Z,6.14
2023-04-30T21:12:44.147Z,6.11
2023-04-30T21:15:12.047Z,6.07
2023-04-30T21:17:39.834Z,6.04
2023-04-30T21:20:07.872Z,6.00
2023-04-30T21:22:35.401Z,5.97
2023-04-30T21:25:02.833Z,5.93
2023-04-30T21:27:30.179Z,5.91
2023-04-30T21:29:57.876Z,5.88
2023-04-30T21:32:25.555Z,5.85
2023-04-30T21:34:53.015Z,5.81
2023-04-30T21:37:20.545Z,5.78
2023-04-30T21:39:47.908Z,5.74
2023-04-30T21:42:15.337Z,5.70
2023-04-30T21:44:42.706Z,5.65
2023-04-30T21:47:10.826Z,5.61
2023-04-30T21:49:38.441Z,5.57
2023-04-30T21:52:08.532Z,5.53
2023-04-30T21:54:36.024Z,5.48
2023-04-30T21:57:04.227Z,5.43
2023-04-30T21:59:31.578Z,5.38
2023-04-30T22:02:03.053Z,5.33
2023-04-30T22:04:32.577Z,5.28
2023-04-30T22:07:01.195Z,5.22
2023-04-30T22:09:28.584Z,5.17
2023-04-30T22:11:55.999Z,5.12
2023-04-30T22:14:23.698Z,5.07
2023-04-30T22:16:51.641Z,5.01
2023-04-30T22:19:19.104Z,4.97
2023-04-30T22:21:46.614Z,4.91
2023-04-30T22:24:15.797Z,4.86
2023-04-30T22:26:43.409Z,4.81
2023-04-30T22:29:11.087Z,4.77
2023-04-30T22:31:38.487Z,4.73
2023-04-30T22:34:07.191Z,4.69
2023-04-30T22:36:34.660Z,4.66
2023-04-30T22:39:02.066Z,4.63
2023-04-30T22:41:29.555Z,4.61
2023-04-30T22:43:56.924Z,4.58
2023-04-30T22:46:24.375Z,4.56
2023-04-30T22:48:51.947Z,4.53
2023-04-30T22:51:19.280Z,4.50
2023-04-30T22:53:46.829Z,4.48
2023-04-30T22:56:14.568Z,4.45
2023-04-30T22:58:41.949Z,4.43
2023-04-30T23:01:09.620Z,4.41
2023-04-30T23:03:39.095Z,4.41
2023-04-30T23:06:06.483Z,4.40
2023-04-30T23:08:34.128Z,4.40
2023-04-30T23:11:03.169Z,4.41
2023-04-30T23:13:30.572Z,4.41
2023-04-30T23:15:59.496Z,4.42
2023-04-30T23:18:26.960Z,4.41
2023-04-30T23:20:59.218Z,4.40
2023-04-30T23:23:29.812Z,4.38
2023-04-30T23:25:57.721Z,4.35
2023-04-30T23:28:25.115Z,4.33
2023-04-30T23:30:52.912Z,4.29
2023-04-30T23:33:20.338Z,4.26
2023-04-30T23:35:47.990Z,4.22
2023-04-30T23:38:15.592Z,4.17
2023-04-30T23:40:43.650Z,4.13
2023-04-30T23:43:11.959Z,4.08
2023-04-30T23:45:45.290Z,4.03
2023-04-30T23:48:13.261Z,3.99
2023-04-30T23:50:40.801Z,3.94
2023-04-30T23:53:08.130Z,3.90
2023-04-30T23:55:35.647Z,3.86
2023-04-30T23:58:03.280Z,3.81
